Honolulu, HI

11:52 AM HST on September 30, 2014 (GMT -1000)
Pacific Heights | Change Station
CLOSE
Current Station
Personal Weather Station
Location: Honolulu, HI
Elevation: 528 ft
Nearby Weather Stations
Active Advisory: Areal Flood Advisory Active Notice: Record Report

Elev 528 ft 21.33 °N, 157.84 °W | Updated 4 seconds ago

Scattered Clouds
Scattered Clouds
84.4 °F
Feels Like 91 °F
N
6.0
Wind Variable Wind from West
Gusts 11.0 mph

Today
High -- | Low -- °F
--% Chance of Precip.
Yesterday
High -- | Low -- °F
Precip. -- in
6:22 AM 6:19 PM
Waxing Crescent, 40% visible
Pressure 29.94 in
Visibility 10.0 miles
Clouds Few 3300 ft
Scattered Clouds 4000 ft
Heat Index 91 °F
Dew Point 73 °F
Humidity 68%
Rainfall 0.00 in
Snow Depth Not available.
UV 7 out of 12
Pollen Not available.
PM2.5 Good
Flu Activity Not available.
METAR PHNL 302053Z 16008KT 10SM FEW033TCU SCT040 29/22 A2994 RMK AO2 SLP139 TCU E VCSH NE T02890222 55003

More Conditions Fewer Conditions

Pressure 29.94 in
Visibility 10.0 miles
Clouds Few 3300 ft
Scattered Clouds 4000 ft
Heat Index 91 °F
Dew Point 73 °F
Humidity 68%
Rainfall 0.00 in
Snow Depth Not available.
UV 7 out of 12
Pollen Not available.
PM2.5 Good
Flu Activity Not available.
METAR PHNL 302053Z 16008KT 10SM FEW033TCU SCT040 29/22 A2994 RMK AO2 SLP139 TCU E VCSH NE T02890222 55003

More Conditions Fewer Conditions

10-Day Weather Forecast

Almanac

Astronomy

Sep. 30, 2014 Rise Set
Actual Time 6:22 AM HST 6:19 PM HST
Civil Twilight 6:00 AM HST 6:41 PM HST
Nautical Twilight 5:34 AM HST 7:07 PM HST
Astronomical Twilight 5:08 AM HST 7:33 PM HST
Moon 12:08 PM HST 11:32 PM HST
Length of Visible Light 12h 41m
Length of Day
11h 57m
Tomorrow will be 1m 13s shorter.
Waxing Crescent, 40% of the Moon is Illuminated
Today
Waxing Crescent
Oct 1
First Quarter
Oct 8
Full
Oct 15
Last Quarter
Oct 23
New

Today's Extremes

State Highs State Lows

Community

WunderPhotos

Upload Photos

1,757,755 photos uploaded!

Nearby

Air Quality

  Air Quality AQ Index Pollutant
Yesterday Good
PM10
Current Good
PM2.5
Tuesday Good
OZONE
Wednesday Good
OZONE

Snow Depth

Station Depth Elevation
No new snow has been reported.

Earthquake Activity

City Distance Mag. Time & Date
No recent earthquake activity has been reported nearby.
Minimum magnitude displayed is 2.5.

Coastal Water Temperatures

Place Temperature
No Stations Reporting

Nearby Weather Stations